sensor_id;sensor_type;location;lat;lon;timestamp;temperature;humidity
59975;DHT22;62136;-35.664;-63.766;2023-03-26T00:01:17;26.30;54.60
59975;DHT22;62136;-35.664;-63.766;2023-03-26T00:03:44;26.30;54.60
59975;DHT22;62136;-35.664;-63.766;2023-03-26T00:06:14;26.20;54.50
59975;DHT22;62136;-35.664;-63.766;2023-03-26T00:08:44;26.30;54.50
59975;DHT22;62136;-35.664;-63.766;2023-03-26T00:11:12;26.20;54.50
59975;DHT22;62136;-35.664;-63.766;2023-03-26T00:17:02;26.20;54.50
59975;DHT22;62136;-35.664;-63.766;2023-03-26T00:19:52;26.10;54.50
59975;DHT22;62136;-35.664;-63.766;2023-03-26T00:22:20;26.10;54.50
59975;DHT22;62136;-35.664;-63.766;2023-03-26T00:24:48;26.10;54.40
59975;DHT22;62136;-35.664;-63.766;2023-03-26T00:27:16;26.10;54.30
59975;DHT22;62136;-35.664;-63.766;2023-03-26T00:29:43;26.10;54.40
59975;DHT22;62136;-35.664;-63.766;2023-03-26T00:32:10;26.10;54.40
59975;DHT22;62136;-35.664;-63.766;2023-03-26T00:34:37;26.00;54.30
59975;DHT22;62136;-35.664;-63.766;2023-03-26T00:37:06;26.00;54.30
59975;DHT22;62136;-35.664;-63.766;2023-03-26T00:39:34;26.00;54.30
59975;DHT22;62136;-35.664;-63.766;2023-03-26T00:42:03;26.00;54.30
59975;DHT22;62136;-35.664;-63.766;2023-03-26T00:44:33;26.00;54.20
59975;DHT22;62136;-35.664;-63.766;2023-03-26T00:47:00;25.90;54.40
59975;DHT22;62136;-35.664;-63.766;2023-03-26T00:49:29;25.90;54.20
59975;DHT22;62136;-35.664;-63.766;2023-03-26T00:52:02;25.90;54.20
59975;DHT22;62136;-35.664;-63.766;2023-03-26T00:54:29;25.80;54.10
59975;DHT22;62136;-35.664;-63.766;2023-03-26T00:56:56;25.90;54.20
59975;DHT22;62136;-35.664;-63.766;2023-03-26T00:59:23;25.80;54.10
59975;DHT22;62136;-35.664;-63.766;2023-03-26T01:01:50;25.80;54.10
59975;DHT22;62136;-35.664;-63.766;2023-03-26T01:04:27;25.80;54.30
59975;DHT22;62136;-35.664;-63.766;2023-03-26T01:06:58;25.70;54.10
59975;DHT22;62136;-35.664;-63.766;2023-03-26T01:09:32;25.70;54.00
59975;DHT22;62136;-35.664;-63.766;2023-03-26T01:12:02;25.70;54.00
59975;DHT22;62136;-35.664;-63.766;2023-03-26T01:14:30;25.70;54.00
59975;DHT22;62136;-35.664;-63.766;2023-03-26T01:17:00;25.70;54.00
59975;DHT22;62136;-35.664;-63.766;2023-03-26T01:19:38;25.70;54.00
59975;DHT22;62136;-35.664;-63.766;2023-03-26T01:22:08;25.70;53.90
59975;DHT22;62136;-35.664;-63.766;2023-03-26T01:24:38;25.70;54.00
59975;DHT22;62136;-35.664;-63.766;2023-03-26T01:32:50;25.60;53.90
59975;DHT22;62136;-35.664;-63.766;2023-03-26T01:45:40;25.50;53.80
59975;DHT22;62136;-35.664;-63.766;2023-03-26T01:48:08;25.50;53.80
59975;DHT22;62136;-35.664;-63.766;2023-03-26T01:50:35;25.40;53.80
59975;DHT22;62136;-35.664;-63.766;2023-03-26T01:53:02;25.40;53.80
59975;DHT22;62136;-35.664;-63.766;2023-03-26T01:58:22;25.40;53.80
59975;DHT22;62136;-35.664;-63.766;2023-03-26T02:03:30;25.30;53.70
59975;DHT22;62136;-35.664;-63.766;2023-03-26T02:08:50;25.30;53.70
59975;DHT22;62136;-35.664;-63.766;2023-03-26T02:11:18;25.30;53.80
59975;DHT22;62136;-35.664;-63.766;2023-03-26T02:13:46;25.20;53.70
59975;DHT22;62136;-35.664;-63.766;2023-03-26T02:16:15;25.20;53.60
59975;DHT22;62136;-35.664;-63.766;2023-03-26T02:18:46;25.20;53.70
59975;DHT22;62136;-35.664;-63.766;2023-03-26T02:21:22;25.20;53.70
59975;DHT22;62136;-35.664;-63.766;2023-03-26T02:23:54;25.10;53.60
59975;DHT22;62136;-35.664;-63.766;2023-03-26T02:26:29;25.10;53.60
59975;DHT22;62136;-35.664;-63.766;2023-03-26T02:28:57;25.10;53.60
59975;DHT22;62136;-35.664;-63.766;2023-03-26T02:31:24;25.10;53.60
59975;DHT22;62136;-35.664;-63.766;2023-03-26T02:33:53;25.10;53.60
59975;DHT22;62136;-35.664;-63.766;2023-03-26T02:36:21;25.10;53.50
59975;DHT22;62136;-35.664;-63.766;2023-03-26T02:38:53;25.00;53.50
59975;DHT22;62136;-35.664;-63.766;2023-03-26T02:41:20;25.00;53.60
59975;DHT22;62136;-35.664;-63.766;2023-03-26T02:43:48;25.00;53.60
59975;DHT22;62136;-35.664;-63.766;2023-03-26T02:46:14;25.00;53.50
59975;DHT22;62136;-35.664;-63.766;2023-03-26T02:48:42;25.00;53.60
59975;DHT22;62136;-35.664;-63.766;2023-03-26T02:51:09;24.90;53.50
59975;DHT22;62136;-35.664;-63.766;2023-03-26T02:53:36;24.90;53.50
59975;DHT22;62136;-35.664;-63.766;2023-03-26T02:56:05;24.90;53.50
59975;DHT22;62136;-35.664;-63.766;2023-03-26T02:58:32;24.90;53.50
59975;DHT22;62136;-35.664;-63.766;2023-03-26T03:00:59;24.90;53.50
59975;DHT22;62136;-35.664;-63.766;2023-03-26T03:03:28;24.90;53.50
59975;DHT22;62136;-35.664;-63.766;2023-03-26T03:05:56;24.90;53.50
59975;DHT22;62136;-35.664;-63.766;2023-03-26T03:08:25;24.80;53.50
59975;DHT22;62136;-35.664;-63.766;2023-03-26T03:11:07;24.80;53.50
59975;DHT22;62136;-35.664;-63.766;2023-03-26T03:13:34;24.80;53.50
59975;DHT22;62136;-35.664;-63.766;2023-03-26T03:16:02;24.70;53.40
59975;DHT22;62136;-35.664;-63.766;2023-03-26T03:18:29;24.70;53.50
59975;DHT22;62136;-35.664;-63.766;2023-03-26T03:20:56;24.70;53.40
59975;DHT22;62136;-35.664;-63.766;2023-03-26T03:23:27;24.70;53.40
59975;DHT22;62136;-35.664;-63.766;2023-03-26T03:25:57;24.70;53.40
59975;DHT22;62136;-35.664;-63.766;2023-03-26T03:28:25;24.70;53.40
59975;DHT22;62136;-35.664;-63.766;2023-03-26T03:30:52;24.70;53.60
59975;DHT22;62136;-35.664;-63.766;2023-03-26T03:33:23;24.60;53.40
59975;DHT22;62136;-35.664;-63.766;2023-03-26T03:35:50;24.60;53.30
59975;DHT22;62136;-35.664;-63.766;2023-03-26T03:38:18;24.70;53.30
59975;DHT22;62136;-35.664;-63.766;2023-03-26T03:40:45;24.60;53.30
59975;DHT22;62136;-35.664;-63.766;2023-03-26T03:43:12;24.60;53.30
59975;DHT22;62136;-35.664;-63.766;2023-03-26T03:45:39;24.60;53.30
59975;DHT22;62136;-35.664;-63.766;2023-03-26T03:48:06;24.60;53.20
59975;DHT22;62136;-35.664;-63.766;2023-03-26T03:50:33;24.60;53.30
59975;DHT22;62136;-35.664;-63.766;2023-03-26T03:53:00;24.60;53.20
59975;DHT22;62136;-35.664;-63.766;2023-03-26T03:55:28;24.60;53.30
59975;DHT22;62136;-35.664;-63.766;2023-03-26T03:57:55;24.60;53.30
59975;DHT22;62136;-35.664;-63.766;2023-03-26T04:00:23;24.60;53.20
59975;DHT22;62136;-35.664;-63.766;2023-03-26T04:02:50;24.50;53.20
59975;DHT22;62136;-35.664;-63.766;2023-03-26T04:05:19;24.50;53.20
59975;DHT22;62136;-35.664;-63.766;2023-03-26T04:07:46;24.50;53.20
59975;DHT22;62136;-35.664;-63.766;2023-03-26T04:10:14;24.50;53.10
59975;DHT22;62136;-35.664;-63.766;2023-03-26T04:12:41;24.50;53.20
59975;DHT22;62136;-35.664;-63.766;2023-03-26T04:15:08;24.50;53.10
59975;DHT22;62136;-35.664;-63.766;2023-03-26T04:17:35;24.50;53.10
59975;DHT22;62136;-35.664;-63.766;2023-03-26T04:20:09;24.40;53.10
59975;DHT22;62136;-35.664;-63.766;2023-03-26T04:22:42;24.40;53.20
59975;DHT22;62136;-35.664;-63.766;2023-03-26T04:25:11;24.40;53.00
59975;DHT22;62136;-35.664;-63.766;2023-03-26T04:27:39;24.40;53.00
59975;DHT22;62136;-35.664;-63.766;2023-03-26T04:30:12;24.40;53.00
59975;DHT22;62136;-35.664;-63.766;2023-03-26T04:32:40;24.40;53.10
59975;DHT22;62136;-35.664;-63.766;2023-03-26T04:35:15;24.40;53.10
59975;DHT22;62136;-35.664;-63.766;2023-03-26T04:37:43;24.30;53.00
59975;DHT22;62136;-35.664;-63.766;2023-03-26T04:40:15;24.30;53.00
59975;DHT22;62136;-35.664;-63.766;2023-03-26T04:42:42;24.30;53.00
59975;DHT22;62136;-35.664;-63.766;2023-03-26T04:45:17;24.30;53.00
59975;DHT22;62136;-35.664;-63.766;2023-03-26T04:47:50;24.30;53.00
59975;DHT22;62136;-35.664;-63.766;2023-03-26T04:50:18;24.30;53.10
59975;DHT22;62136;-35.664;-63.766;2023-03-26T04:52:47;24.30;53.00
59975;DHT22;62136;-35.664;-63.766;2023-03-26T04:56:04;24.20;53.10
59975;DHT22;62136;-35.664;-63.766;2023-03-26T04:58:28;24.20;53.00
59975;DHT22;62136;-35.664;-63.766;2023-03-26T05:01:00;24.20;53.00
59975;DHT22;62136;-35.664;-63.766;2023-03-26T05:03:27;24.20;53.00
59975;DHT22;62136;-35.664;-63.766;2023-03-26T05:06:01;24.20;53.10
59975;DHT22;62136;-35.664;-63.766;2023-03-26T05:08:30;24.10;52.90
59975;DHT22;62136;-35.664;-63.766;2023-03-26T05:11:00;24.10;52.90
59975;DHT22;62136;-35.664;-63.766;2023-03-26T05:13:27;24.10;52.90
59975;DHT22;62136;-35.664;-63.766;2023-03-26T05:15:57;24.10;52.90
59975;DHT22;62136;-35.664;-63.766;2023-03-26T05:18:24;24.10;52.90
59975;DHT22;62136;-35.664;-63.766;2023-03-26T05:20:51;24.10;52.90
59975;DHT22;62136;-35.664;-63.766;2023-03-26T05:23:21;24.10;52.80
59975;DHT22;62136;-35.664;-63.766;2023-03-26T05:25:51;24.10;53.00
59975;DHT22;62136;-35.664;-63.766;2023-03-26T05:28:18;24.10;52.90
59975;DHT22;62136;-35.664;-63.766;2023-03-26T05:30:49;24.10;52.90
59975;DHT22;62136;-35.664;-63.766;2023-03-26T05:33:19;24.10;52.70
59975;DHT22;62136;-35.664;-63.766;2023-03-26T05:36:03;24.00;53.10
59975;DHT22;62136;-35.664;-63.766;2023-03-26T05:38:31;24.00;53.00
59975;DHT22;62136;-35.664;-63.766;2023-03-26T05:40:59;24.00;52.80
59975;DHT22;62136;-35.664;-63.766;2023-03-26T05:43:27;24.00;52.90
59975;DHT22;62136;-35.664;-63.766;2023-03-26T05:45:54;24.00;52.70
59975;DHT22;62136;-35.664;-63.766;2023-03-26T05:48:21;23.90;52.80
59975;DHT22;62136;-35.664;-63.766;2023-03-26T05:50:53;23.90;52.90
59975;DHT22;62136;-35.664;-63.766;2023-03-26T05:53:21;23.90;52.70
59975;DHT22;62136;-35.664;-63.766;2023-03-26T05:55:49;23.90;52.80
59975;DHT22;62136;-35.664;-63.766;2023-03-26T05:58:21;23.90;52.80
59975;DHT22;62136;-35.664;-63.766;2023-03-26T06:00:48;23.80;52.80
59975;DHT22;62136;-35.664;-63.766;2023-03-26T06:03:15;23.80;53.30
59975;DHT22;62136;-35.664;-63.766;2023-03-26T06:05:42;23.90;52.90
59975;DHT22;62136;-35.664;-63.766;2023-03-26T06:08:09;23.80;52.70
59975;DHT22;62136;-35.664;-63.766;2023-03-26T06:10:39;23.80;52.70
59975;DHT22;62136;-35.664;-63.766;2023-03-26T06:13:06;23.80;52.70
59975;DHT22;62136;-35.664;-63.766;2023-03-26T06:15:33;23.70;52.70
59975;DHT22;62136;-35.664;-63.766;2023-03-26T06:18:00;23.80;52.60
59975;DHT22;62136;-35.664;-63.766;2023-03-26T06:20:28;23.80;52.60
59975;DHT22;62136;-35.664;-63.766;2023-03-26T06:22:55;23.70;52.50
59975;DHT22;62136;-35.664;-63.766;2023-03-26T06:25:22;23.70;52.60
59975;DHT22;62136;-35.664;-63.766;2023-03-26T06:27:49;23.70;52.50
59975;DHT22;62136;-35.664;-63.766;2023-03-26T06:30:16;23.70;52.70
59975;DHT22;62136;-35.664;-63.766;2023-03-26T06:32:43;23.60;52.50
59975;DHT22;62136;-35.664;-63.766;2023-03-26T06:35:10;23.60;52.60
59975;DHT22;62136;-35.664;-63.766;2023-03-26T06:37:37;23.60;52.50
59975;DHT22;62136;-35.664;-63.766;2023-03-26T06:40:05;23.60;52.50
59975;DHT22;62136;-35.664;-63.766;2023-03-26T06:42:32;23.60;52.50
59975;DHT22;62136;-35.664;-63.766;2023-03-26T06:44:59;23.60;52.40
59975;DHT22;62136;-35.664;-63.766;2023-03-26T06:47:26;23.60;52.50
59975;DHT22;62136;-35.664;-63.766;2023-03-26T06:49:56;23.60;52.50
59975;DHT22;62136;-35.664;-63.766;2023-03-26T06:52:23;23.60;52.40
59975;DHT22;62136;-35.664;-63.766;2023-03-26T06:54:51;23.60;52.50
59975;DHT22;62136;-35.664;-63.766;2023-03-26T06:57:18;23.60;52.30
59975;DHT22;62136;-35.664;-63.766;2023-03-26T06:59:47;23.60;52.40
59975;DHT22;62136;-35.664;-63.766;2023-03-26T07:02:14;23.60;52.30
59975;DHT22;62136;-35.664;-63.766;2023-03-26T07:04:41;23.60;52.30
59975;DHT22;62136;-35.664;-63.766;2023-03-26T07:07:08;23.60;52.40
59975;DHT22;62136;-35.664;-63.766;2023-03-26T07:09:35;23.50;52.30
59975;DHT22;62136;-35.664;-63.766;2023-03-26T07:12:02;23.50;52.20
59975;DHT22;62136;-35.664;-63.766;2023-03-26T07:14:29;23.50;52.20
59975;DHT22;62136;-35.664;-63.766;2023-03-26T07:16:58;23.50;52.30
59975;DHT22;62136;-35.664;-63.766;2023-03-26T07:19:25;23.50;52.30
59975;DHT22;62136;-35.664;-63.766;2023-03-26T07:21:52;23.40;52.30
59975;DHT22;62136;-35.664;-63.766;2023-03-26T07:24:20;23.40;52.20
59975;DHT22;62136;-35.664;-63.766;2023-03-26T07:29:40;23.40;52.20
59975;DHT22;62136;-35.664;-63.766;2023-03-26T07:40:59;23.40;52.20
59975;DHT22;62136;-35.664;-63.766;2023-03-26T07:46:12;23.30;52.10
59975;DHT22;62136;-35.664;-63.766;2023-03-26T07:48:43;23.30;52.10
59975;DHT22;62136;-35.664;-63.766;2023-03-26T07:51:13;23.20;52.00
59975;DHT22;62136;-35.664;-63.766;2023-03-26T07:53:40;23.20;52.10
59975;DHT22;62136;-35.664;-63.766;2023-03-26T08:07:14;23.10;52.00
59975;DHT22;62136;-35.664;-63.766;2023-03-26T08:21:09;23.10;51.80
59975;DHT22;62136;-35.664;-63.766;2023-03-26T08:32:18;22.90;51.80
59975;DHT22;62136;-35.664;-63.766;2023-03-26T08:34:46;22.90;51.90
59975;DHT22;62136;-35.664;-63.766;2023-03-26T08:37:13;22.90;51.90
59975;DHT22;62136;-35.664;-63.766;2023-03-26T08:39:40;22.90;51.80
59975;DHT22;62136;-35.664;-63.766;2023-03-26T09:01:43;22.70;51.40
59975;DHT22;62136;-35.664;-63.766;2023-03-26T09:07:23;22.70;51.40
59975;DHT22;62136;-35.664;-63.766;2023-03-26T09:26:49;22.50;51.20
59975;DHT22;62136;-35.664;-63.766;2023-03-26T09:32:08;22.50;51.10
59975;DHT22;62136;-35.664;-63.766;2023-03-26T09:37:59;22.50;50.90
59975;DHT22;62136;-35.664;-63.766;2023-03-26T09:40:43;22.40;51.00
59975;DHT22;62136;-35.664;-63.766;2023-03-26T09:46:14;22.40;50.90
59975;DHT22;62136;-35.664;-63.766;2023-03-26T09:48:50;22.30;51.00
59975;DHT22;62136;-35.664;-63.766;2023-03-26T09:51:50;22.40;51.10
59975;DHT22;62136;-35.664;-63.766;2023-03-26T09:54:41;22.40;50.90
59975;DHT22;62136;-35.664;-63.766;2023-03-26T10:06:26;22.30;50.60
59975;DHT22;62136;-35.664;-63.766;2023-03-26T10:11:35;22.20;50.70
59975;DHT22;62136;-35.664;-63.766;2023-03-26T10:16:51;22.20;50.60
59975;DHT22;62136;-35.664;-63.766;2023-03-26T10:22:24;22.20;50.60
59975;DHT22;62136;-35.664;-63.766;2023-03-26T10:53:33;22.00;50.50
59975;DHT22;62136;-35.664;-63.766;2023-03-26T10:55:55;22.00;50.60
59975;DHT22;62136;-35.664;-63.766;2023-03-26T10:58:26;22.00;50.60
59975;DHT22;62136;-35.664;-63.766;2023-03-26T11:03:53;21.90;50.60
59975;DHT22;62136;-35.664;-63.766;2023-03-26T11:09:08;22.00;50.80
59975;DHT22;62136;-35.664;-63.766;2023-03-26T11:11:58;21.90;50.70
59975;DHT22;62136;-35.664;-63.766;2023-03-26T11:15:09;21.90;50.80
59975;DHT22;62136;-35.664;-63.766;2023-03-26T11:23:22;21.90;50.90
59975;DHT22;62136;-35.664;-63.766;2023-03-26T11:29:11;21.90;51.10
59975;DHT22;62136;-35.664;-63.766;2023-03-26T11:32:19;22.00;51.20
59975;DHT22;62136;-35.664;-63.766;2023-03-26T11:34:58;22.00;51.20
59975;DHT22;62136;-35.664;-63.766;2023-03-26T11:37:47;22.00;51.30
59975;DHT22;62136;-35.664;-63.766;2023-03-26T11:40:23;22.00;51.30
59975;DHT22;62136;-35.664;-63.766;2023-03-26T11:43:01;22.00;51.30
59975;DHT22;62136;-35.664;-63.766;2023-03-26T11:45:34;22.00;51.30
59975;DHT22;62136;-35.664;-63.766;2023-03-26T11:50:48;22.10;51.40
59975;DHT22;62136;-35.664;-63.766;2023-03-26T11:53:18;22.10;51.50
59975;DHT22;62136;-35.664;-63.766;2023-03-26T11:59:04;22.10;51.50
59975;DHT22;62136;-35.664;-63.766;2023-03-26T12:01:49;22.20;51.50
59975;DHT22;62136;-35.664;-63.766;2023-03-26T12:04:27;22.20;51.50
59975;DHT22;62136;-35.664;-63.766;2023-03-26T12:06:57;22.30;51.50
59975;DHT22;62136;-35.664;-63.766;2023-03-26T12:09:25;22.30;51.50
59975;DHT22;62136;-35.664;-63.766;2023-03-26T12:11:58;22.30;51.50
59975;DHT22;62136;-35.664;-63.766;2023-03-26T12:14:27;22.30;51.50
59975;DHT22;62136;-35.664;-63.766;2023-03-26T12:17:07;22.40;51.50
59975;DHT22;62136;-35.664;-63.766;2023-03-26T12:19:42;22.50;51.30
59975;DHT22;62136;-35.664;-63.766;2023-03-26T12:25:17;22.50;51.40
59975;DHT22;62136;-35.664;-63.766;2023-03-26T12:27:48;22.50;51.30
59975;DHT22;62136;-35.664;-63.766;2023-03-26T12:32:54;22.60;51.20
59975;DHT22;62136;-35.664;-63.766;2023-03-26T12:35:26;22.60;51.20
59975;DHT22;62136;-35.664;-63.766;2023-03-26T12:38:12;22.60;51.20
59975;DHT22;62136;-35.664;-63.766;2023-03-26T12:40:39;22.70;51.20
59975;DHT22;62136;-35.664;-63.766;2023-03-26T12:43:29;22.70;51.20
59975;DHT22;62136;-35.664;-63.766;2023-03-26T12:45:57;22.70;51.10
59975;DHT22;62136;-35.664;-63.766;2023-03-26T12:48:24;22.80;51.20
59975;DHT22;62136;-35.664;-63.766;2023-03-26T12:59:45;22.80;51.00
59975;DHT22;62136;-35.664;-63.766;2023-03-26T13:19:40;23.00;50.80
59975;DHT22;62136;-35.664;-63.766;2023-03-26T13:22:25;23.00;50.80
59975;DHT22;62136;-35.664;-63.766;2023-03-26T13:27:59;23.10;50.70
59975;DHT22;62136;-35.664;-63.766;2023-03-26T13:46:51;23.20;50.30
59975;DHT22;62136;-35.664;-63.766;2023-03-26T13:54:48;23.30;50.20
59975;DHT22;62136;-35.664;-63.766;2023-03-26T13:59:59;23.40;50.10
59975;DHT22;62136;-35.664;-63.766;2023-03-26T14:02:42;23.40;50.10
59975;DHT22;62136;-35.664;-63.766;2023-03-26T14:05:22;23.50;50.20
59975;DHT22;62136;-35.664;-63.766;2023-03-26T14:08:15;23.50;49.90
59975;DHT22;62136;-35.664;-63.766;2023-03-26T14:10:50;23.50;49.90
59975;DHT22;62136;-35.664;-63.766;2023-03-26T14:16:05;23.60;50.10
59975;DHT22;62136;-35.664;-63.766;2023-03-26T14:24:44;23.70;49.70
59975;DHT22;62136;-35.664;-63.766;2023-03-26T14:36:38;23.80;49.50
59975;DHT22;62136;-35.664;-63.766;2023-03-26T14:42:01;23.80;49.50
59975;DHT22;62136;-35.664;-63.766;2023-03-26T14:44:37;23.90;49.40
59975;DHT22;62136;-35.664;-63.766;2023-03-26T14:47:18;23.90;49.30
59975;DHT22;62136;-35.664;-63.766;2023-03-26T14:52:56;23.90;49.10
59975;DHT22;62136;-35.664;-63.766;2023-03-26T15:16:06;24.20;48.60
59975;DHT22;62136;-35.664;-63.766;2023-03-26T15:24:49;24.30;48.20
59975;DHT22;62136;-35.664;-63.766;2023-03-26T15:27:37;24.40;48.20
59975;DHT22;62136;-35.664;-63.766;2023-03-26T15:39:53;24.40;47.90
59975;DHT22;62136;-35.664;-63.766;2023-03-26T15:42:36;24.50;48.00
59975;DHT22;62136;-35.664;-63.766;2023-03-26T15:50:38;24.60;48.10
59975;DHT22;62136;-35.664;-63.766;2023-03-26T15:55:57;24.60;47.80
59975;DHT22;62136;-35.664;-63.766;2023-03-26T16:15:38;24.80;47.70
59975;DHT22;62136;-35.664;-63.766;2023-03-26T16:26:14;24.90;47.60
59975;DHT22;62136;-35.664;-63.766;2023-03-26T16:36:46;25.00;47.80
59975;DHT22;62136;-35.664;-63.766;2023-03-26T16:39:22;25.10;47.20
59975;DHT22;62136;-35.664;-63.766;2023-03-26T16:42:02;25.00;47.40
59975;DHT22;62136;-35.664;-63.766;2023-03-26T16:47:29;25.10;47.10
59975;DHT22;62136;-35.664;-63.766;2023-03-26T16:56:01;25.10;47.00
59975;DHT22;62136;-35.664;-63.766;2023-03-26T17:01:53;25.20;47.70
59975;DHT22;62136;-35.664;-63.766;2023-03-26T17:04:28;25.20;47.40
59975;DHT22;62136;-35.664;-63.766;2023-03-26T17:09:51;25.20;47.00
59975;DHT22;62136;-35.664;-63.766;2023-03-26T17:18:11;25.40;47.10
59975;DHT22;62136;-35.664;-63.766;2023-03-26T17:23:50;25.40;46.30
59975;DHT22;62136;-35.664;-63.766;2023-03-26T17:42:34;25.50;46.20
59975;DHT22;62136;-35.664;-63.766;2023-03-26T17:50:44;25.60;46.40
59975;DHT22;62136;-35.664;-63.766;2023-03-26T17:53:33;25.70;45.80
59975;DHT22;62136;-35.664;-63.766;2023-03-26T17:56:17;25.70;45.70
59975;DHT22;62136;-35.664;-63.766;2023-03-26T17:58:49;25.60;45.70
59975;DHT22;62136;-35.664;-63.766;2023-03-26T18:03:56;25.70;45.40
59975;DHT22;62136;-35.664;-63.766;2023-03-26T18:12:44;25.70;45.40
59975;DHT22;62136;-35.664;-63.766;2023-03-26T18:18:16;25.80;45.40
59975;DHT22;62136;-35.664;-63.766;2023-03-26T18:20:48;25.80;45.30
59975;DHT22;62136;-35.664;-63.766;2023-03-26T18:23:28;25.80;45.40
59975;DHT22;62136;-35.664;-63.766;2023-03-26T18:26:07;25.80;45.20
59975;DHT22;62136;-35.664;-63.766;2023-03-26T18:28:37;25.80;45.10
59975;DHT22;62136;-35.664;-63.766;2023-03-26T18:31:12;25.90;45.20
59975;DHT22;62136;-35.664;-63.766;2023-03-26T18:33:44;25.80;45.20
59975;DHT22;62136;-35.664;-63.766;2023-03-26T18:36:13;25.90;45.10
59975;DHT22;62136;-35.664;-63.766;2023-03-26T18:38:41;25.90;45.10
59975;DHT22;62136;-35.664;-63.766;2023-03-26T18:41:36;25.90;45.10
59975;DHT22;62136;-35.664;-63.766;2023-03-26T18:44:13;25.90;45.00
59975;DHT22;62136;-35.664;-63.766;2023-03-26T18:46:40;25.90;44.90
59975;DHT22;62136;-35.664;-63.766;2023-03-26T18:49:17;25.90;45.00
59975;DHT22;62136;-35.664;-63.766;2023-03-26T18:51:44;25.90;45.20
59975;DHT22;62136;-35.664;-63.766;2023-03-26T18:54:17;25.90;45.10
59975;DHT22;62136;-35.664;-63.766;2023-03-26T18:56:48;25.90;45.40
59975;DHT22;62136;-35.664;-63.766;2023-03-26T18:59:28;26.00;45.30
59975;DHT22;62136;-35.664;-63.766;2023-03-26T19:02:05;25.90;45.50
59975;DHT22;62136;-35.664;-63.766;2023-03-26T19:04:36;26.00;45.60
59975;DHT22;62136;-35.664;-63.766;2023-03-26T19:07:07;26.00;45.40
59975;DHT22;62136;-35.664;-63.766;2023-03-26T19:09:35;26.00;45.40
59975;DHT22;62136;-35.664;-63.766;2023-03-26T19:12:14;26.00;45.50
59975;DHT22;62136;-35.664;-63.766;2023-03-26T19:18:14;26.00;45.50
59975;DHT22;62136;-35.664;-63.766;2023-03-26T19:20:47;26.00;45.20
59975;DHT22;62136;-35.664;-63.766;2023-03-26T19:23:17;26.10;45.40
59975;DHT22;62136;-35.664;-63.766;2023-03-26T19:25:53;26.10;45.40
59975;DHT22;62136;-35.664;-63.766;2023-03-26T19:28:47;26.10;45.60
59975;DHT22;62136;-35.664;-63.766;2023-03-26T19:31:31;26.10;45.60
59975;DHT22;62136;-35.664;-63.766;2023-03-26T19:34:13;26.10;45.30
59975;DHT22;62136;-35.664;-63.766;2023-03-26T19:36:56;26.20;45.20
59975;DHT22;62136;-35.664;-63.766;2023-03-26T19:39:40;26.20;45.70
59975;DHT22;62136;-35.664;-63.766;2023-03-26T19:42:19;26.20;45.20
59975;DHT22;62136;-35.664;-63.766;2023-03-26T19:44:49;26.20;45.40
59975;DHT22;62136;-35.664;-63.766;2023-03-26T19:47:22;26.20;45.30
59975;DHT22;62136;-35.664;-63.766;2023-03-26T19:49:53;26.20;45.30
59975;DHT22;62136;-35.664;-63.766;2023-03-26T19:52:24;26.20;45.00
59975;DHT22;62136;-35.664;-63.766;2023-03-26T19:55:09;26.20;44.90
59975;DHT22;62136;-35.664;-63.766;2023-03-26T19:57:41;26.20;45.00
59975;DHT22;62136;-35.664;-63.766;2023-03-26T20:00:10;26.30;45.00
59975;DHT22;62136;-35.664;-63.766;2023-03-26T20:02:42;26.30;45.80
59975;DHT22;62136;-35.664;-63.766;2023-03-26T20:05:19;26.30;44.90
59975;DHT22;62136;-35.664;-63.766;2023-03-26T20:07:53;26.30;45.20
59975;DHT22;62136;-35.664;-63.766;2023-03-26T20:10:21;26.30;45.20
59975;DHT22;62136;-35.664;-63.766;2023-03-26T20:12:49;26.30;45.20
59975;DHT22;62136;-35.664;-63.766;2023-03-26T20:15:26;26.40;44.90
59975;DHT22;62136;-35.664;-63.766;2023-03-26T20:17:54;26.40;44.90
59975;DHT22;62136;-35.664;-63.766;2023-03-26T20:20:23;26.40;45.00
59975;DHT22;62136;-35.664;-63.766;2023-03-26T20:22:51;26.40;45.10
59975;DHT22;62136;-35.664;-63.766;2023-03-26T20:25:23;26.40;44.60
59975;DHT22;62136;-35.664;-63.766;2023-03-26T20:27:52;26.40;45.10
59975;DHT22;62136;-35.664;-63.766;2023-03-26T20:30:21;26.40;44.50
59975;DHT22;62136;-35.664;-63.766;2023-03-26T20:32:49;26.40;44.60
59975;DHT22;62136;-35.664;-63.766;2023-03-26T20:35:22;26.40;44.60
59975;DHT22;62136;-35.664;-63.766;2023-03-26T20:37:50;26.40;44.10
59975;DHT22;62136;-35.664;-63.766;2023-03-26T20:40:18;26.40;44.40
59975;DHT22;62136;-35.664;-63.766;2023-03-26T20:42:46;26.40;45.20
59975;DHT22;62136;-35.664;-63.766;2023-03-26T20:47:44;26.40;44.20
59975;DHT22;62136;-35.664;-63.766;2023-03-26T20:50:13;26.50;44.30
59975;DHT22;62136;-35.664;-63.766;2023-03-26T20:52:41;26.50;44.20
59975;DHT22;62136;-35.664;-63.766;2023-03-26T20:55:18;26.50;44.20
59975;DHT22;62136;-35.664;-63.766;2023-03-26T20:57:48;26.50;44.30
59975;DHT22;62136;-35.664;-63.766;2023-03-26T21:00:17;26.40;44.00
59975;DHT22;62136;-35.664;-63.766;2023-03-26T21:02:53;26.50;44.00
59975;DHT22;62136;-35.664;-63.766;2023-03-26T21:05:22;26.50;44.00
59975;DHT22;62136;-35.664;-63.766;2023-03-26T21:07:56;26.50;44.00
59975;DHT22;62136;-35.664;-63.766;2023-03-26T21:10:25;26.50;44.10
59975;DHT22;62136;-35.664;-63.766;2023-03-26T21:12:55;26.50;44.00
59975;DHT22;62136;-35.664;-63.766;2023-03-26T21:15:24;26.50;44.00
59975;DHT22;62136;-35.664;-63.766;2023-03-26T21:17:51;26.50;44.20
59975;DHT22;62136;-35.664;-63.766;2023-03-26T21:20:21;26.50;44.00
59975;DHT22;62136;-35.664;-63.766;2023-03-26T21:22:57;26.50;44.10
59975;DHT22;62136;-35.664;-63.766;2023-03-26T21:25:36;26.50;43.90
59975;DHT22;62136;-35.664;-63.766;2023-03-26T21:28:31;26.50;43.90
59975;DHT22;62136;-35.664;-63.766;2023-03-26T21:31:00;26.50;43.60
59975;DHT22;62136;-35.664;-63.766;2023-03-26T21:33:27;26.50;43.70
59975;DHT22;62136;-35.664;-63.766;2023-03-26T21:35:54;26.50;43.60
59975;DHT22;62136;-35.664;-63.766;2023-03-26T21:38:23;26.50;43.90
59975;DHT22;62136;-35.664;-63.766;2023-03-26T21:40:54;26.50;43.50
59975;DHT22;62136;-35.664;-63.766;2023-03-26T21:43:21;26.50;43.30
59975;DHT22;62136;-35.664;-63.766;2023-03-26T21:45:49;26.50;43.30
59975;DHT22;62136;-35.664;-63.766;2023-03-26T21:48:19;26.50;43.30
59975;DHT22;62136;-35.664;-63.766;2023-03-26T21:50:47;26.50;43.20
59975;DHT22;62136;-35.664;-63.766;2023-03-26T21:53:15;26.50;43.60
59975;DHT22;62136;-35.664;-63.766;2023-03-26T21:59:07;26.40;43.20
59975;DHT22;62136;-35.664;-63.766;2023-03-26T22:04:38;26.40;43.40
59975;DHT22;62136;-35.664;-63.766;2023-03-26T22:07:11;26.40;43.20
59975;DHT22;62136;-35.664;-63.766;2023-03-26T22:09:40;26.40;43.30
59975;DHT22;62136;-35.664;-63.766;2023-03-26T22:12:08;26.40;43.20
59975;DHT22;62136;-35.664;-63.766;2023-03-26T22:14:36;26.40;43.20